Time;durP1;ratioP1;P1;durP2;ratioP2;P2;SDS_P1;SDS_P2;PMS_P1;PMS_P2;Temp;Humidity;BMP_temperature;BMP_pressure;BME280_temperature;BME280_humidity;BME280_pressure;Samples;Min_cycle;Max_cycle;Signal;HPM_P1;HPM_P2
2022/05/31 00:00:05;;;;;;;17.38;4.97;;;;;;;10.47;100.00;97661.06;4948052;28;20070;-57
2022/05/31 00:02:31;;;;;;;16.05;4.72;;;;;;;10.22;100.00;97661.31;4949130;28;20027;-56
2022/05/31 00:04:56;;;;;;;18.38;5.05;;;;;;;9.67;100.00;97659.38;4946641;28;20038;-56
2022/05/31 00:07:21;;;;;;;17.30;4.40;;;;;;;9.66;100.00;97662.88;4948073;28;20039;-57
2022/05/31 00:09:47;;;;;;;20.92;4.80;;;;;;;10.00;100.00;97645.78;4948160;28;20062;-56
2022/05/31 00:12:13;;;;;;;13.80;4.18;;;;;;;10.17;100.00;97658.91;4944914;28;20046;-55
2022/05/31 00:14:39;;;;;;;15.63;4.28;;;;;;;9.99;100.00;97644.09;4948665;28;20039;-57
2022/05/31 00:17:05;;;;;;;15.95;4.30;;;;;;;10.37;100.00;97642.38;4948571;28;20074;-56
2022/05/31 00:19:31;;;;;;;14.00;4.20;;;;;;;10.28;100.00;97649.75;4946222;28;20561;-56
2022/05/31 00:22:18;;;;;;;14.82;4.25;;;;;;;10.43;100.00;97638.66;4963893;28;20042;-56
2022/05/31 00:24:44;;;;;;;13.43;4.03;;;;;;;10.98;100.00;97646.47;4947664;28;20868;-57
2022/05/31 00:27:12;;;;;;;12.15;3.45;;;;;;;10.92;100.00;97656.38;4946547;28;20050;-55
2022/05/31 00:29:37;;;;;;;14.90;4.15;;;;;;;11.09;100.00;97651.19;4948990;28;20086;-56
2022/05/31 00:32:06;;;;;;;16.20;4.32;;;;;;;10.86;100.00;97647.06;4959657;28;20037;-57
2022/05/31 00:34:33;;;;;;;12.95;3.83;;;;;;;10.44;100.00;97645.56;4947490;28;20035;-59
2022/05/31 00:37:00;;;;;;;17.70;4.50;;;;;;;10.34;100.00;97654.72;4946073;28;20098;-56
2022/05/31 00:39:25;;;;;;;15.68;4.53;;;;;;;9.92;100.00;97653.09;4948269;28;20027;-55
2022/05/31 00:42:01;;;;;;;18.15;4.47;;;;;;;10.11;100.00;97653.97;4947393;28;20050;-55
2022/05/31 00:44:28;;;;;;;20.23;4.75;;;;;;;9.43;100.00;97672.50;4944790;28;20039;-55
2022/05/31 00:46:58;;;;;;;18.05;5.00;;;;;;;8.98;100.00;97668.25;4945309;28;20049;-56
2022/05/31 00:49:38;;;;;;;16.23;4.65;;;;;;;9.02;100.00;97656.84;4947801;28;20147;-55
2022/05/31 00:52:14;;;;;;;17.45;4.57;;;;;;;9.29;100.00;97669.63;4946019;28;20049;-56
2022/05/31 00:54:45;;;;;;;18.05;5.13;;;;;;;9.36;100.00;97663.25;4946680;28;20136;-57
2022/05/31 00:57:12;;;;;;;17.10;4.38;;;;;;;9.57;100.00;97663.25;4946782;28;20054;-58
2022/05/31 00:59:45;;;;;;;17.27;4.75;;;;;;;9.23;100.00;97665.50;4947156;28;20023;-56
2022/05/31 01:02:11;;;;;;;18.35;4.63;;;;;;;9.33;100.00;97673.78;4946011;28;20043;-57
2022/05/31 01:04:51;;;;;;;21.17;5.07;;;;;;;8.99;100.00;97677.75;4948500;28;20034;-56
2022/05/31 01:07:17;;;;;;;20.55;5.00;;;;;;;9.02;100.00;97667.25;4946796;28;20090;-56
2022/05/31 01:09:43;;;;;;;18.85;5.00;;;;;;;9.17;100.00;97673.59;4948395;28;20050;-55
2022/05/31 01:12:09;;;;;;;18.50;4.60;;;;;;;9.33;100.00;97671.19;4944510;28;20059;-55
2022/05/31 01:14:35;;;;;;;16.42;4.47;;;;;;;9.35;100.00;97669.34;4946310;28;20118;-56
2022/05/31 01:17:08;;;;;;;16.23;4.68;;;;;;;9.15;100.00;97677.13;4946671;28;20051;-56
2022/05/31 01:22:17;;;;;;;20.52;5.10;;;;;;;9.02;100.00;97682.84;4945707;28;20061;-55
2022/05/31 01:25:21;;;;;;;18.98;4.80;;;;;;;9.05;100.00;97690.50;4947545;28;20472;-56
2022/05/31 01:27:57;;;;;;;19.38;5.00;;;;;;;9.12;100.00;97687.69;4935192;28;20047;-56
2022/05/31 01:30:23;;;;;;;19.17;4.88;;;;;;;8.96;100.00;97696.09;4943470;28;20031;-56
2022/05/31 01:33:04;;;;;;;17.95;5.03;;;;;;;8.83;100.00;97692.28;4948262;28;20029;-56
2022/05/31 01:35:34;;;;;;;19.70;4.90;;;;;;;8.90;100.00;97683.31;4945648;28;20043;-55
2022/05/31 01:38:02;;;;;;;18.50;4.95;;;;;;;8.98;100.00;97683.84;4946166;28;20081;-57
2022/05/31 01:40:46;;;;;;;19.83;5.07;;;;;;;8.74;100.00;97683.06;4942333;28;20155;-55
2022/05/31 01:43:11;;;;;;;18.88;4.75;;;;;;;8.55;100.00;97682.94;4947041;28;20042;-55
2022/05/31 01:46:11;;;;;;;21.88;5.55;;;;;;;8.37;100.00;97683.59;4948353;28;20035;-56
2022/05/31 01:48:39;;;;;;;20.67;5.30;;;;;;;8.57;100.00;97682.88;4944304;28;20521;-57
2022/05/31 01:51:05;;;;;;;16.70;4.78;;;;;;;8.55;100.00;97688.13;4945335;28;20039;-56
2022/05/31 01:53:32;;;;;;;18.17;4.90;;;;;;;8.49;100.00;97685.75;4946742;28;20078;-56
2022/05/31 01:55:58;;;;;;;21.65;5.30;;;;;;;8.54;100.00;97672.59;4945685;28;20548;-56
2022/05/31 01:58:28;;;;;;;23.67;5.35;;;;;;;8.70;100.00;97675.47;4945337;28;20031;-55
2022/05/31 02:00:54;;;;;;;21.10;5.45;;;;;;;8.55;100.00;97677.72;4944865;28;20042;-56
2022/05/31 02:03:21;;;;;;;23.10;5.40;;;;;;;8.47;100.00;97682.34;4945084;28;20039;-58
2022/05/31 02:05:48;;;;;;;16.92;4.40;;;;;;;8.80;100.00;97677.63;4946903;28;20047;-56
2022/05/31 02:08:17;;;;;;;18.33;4.95;;;;;;;8.71;100.00;97674.53;4947536;28;20687;-55
2022/05/31 02:10:43;;;;;;;22.30;5.57;;;;;;;8.70;100.00;97681.50;4944671;28;20043;-55
2022/05/31 02:13:08;;;;;;;20.92;5.15;;;;;;;8.67;100.00;97687.69;4946523;28;20037;-56
2022/05/31 02:15:34;;;;;;;19.75;4.93;;;;;;;8.71;100.00;97682.34;4946039;28;20031;-57
2022/05/31 02:18:00;;;;;;;24.20;5.32;;;;;;;9.13;100.00;97689.38;4946125;28;20130;-55
2022/05/31 02:20:25;;;;;;;17.20;4.63;;;;;;;8.39;100.00;97686.97;4948105;28;20023;-58
2022/05/31 02:22:51;;;;;;;22.33;5.70;;;;;;;8.57;100.00;97681.13;4951154;28;20404;-58
2022/05/31 02:25:17;;;;;;;18.60;4.90;;;;;;;8.69;100.00;97674.59;4949941;28;20030;-55
2022/05/31 02:27:43;;;;;;;22.17;4.88;;;;;;;8.66;100.00;97675.56;4950875;28;20027;-56
2022/05/31 02:30:09;;;;;;;25.35;5.65;;;;;;;8.67;100.00;97676.41;4948666;28;20027;-57
2022/05/31 02:32:34;;;;;;;18.90;4.38;;;;;;;9.06;100.00;97684.41;4952875;28;20027;-55
2022/05/31 02:35:01;;;;;;;19.98;5.05;;;;;;;8.54;100.00;97670.81;4949370;28;20031;-56
2022/05/31 02:37:26;;;;;;;17.33;4.78;;;;;;;8.70;100.00;97673.69;4949155;28;20039;-54
2022/05/31 02:39:52;;;;;;;23.52;5.57;;;;;;;8.44;100.00;97680.72;4949077;28;20031;-56
2022/05/31 02:42:18;;;;;;;19.83;5.25;;;;;;;8.47;100.00;97664.16;4949699;28;20043;-55
2022/05/31 02:44:43;;;;;;;21.10;5.25;;;;;;;8.34;100.00;97679.34;4949564;28;20510;-55
2022/05/31 02:47:09;;;;;;;22.95;5.20;;;;;;;8.61;100.00;97668.84;4950957;28;20397;-56
2022/05/31 02:49:39;;;;;;;20.55;4.95;;;;;;;8.44;100.00;97674.69;4949428;28;20035;-55
2022/05/31 02:52:05;;;;;;;20.58;5.20;;;;;;;8.58;100.00;97672.41;4947613;28;20051;-56
2022/05/31 02:54:30;;;;;;;21.48;4.88;;;;;;;8.39;100.00;97679.19;4949660;28;20034;-56
2022/05/31 02:56:55;;;;;;;19.42;5.05;;;;;;;8.35;100.00;97675.00;4949003;28;20043;-56
2022/05/31 02:59:21;;;;;;;15.45;4.70;;;;;;;8.33;100.00;97667.28;4948480;28;20262;-56
2022/05/31 03:01:50;;;;;;;16.05;4.78;;;;;;;8.11;100.00;97677.59;4946576;28;20066;-57
2022/05/31 03:04:16;;;;;;;12.00;4.32;;;;;;;8.22;100.00;97666.81;4947241;28;20062;-57
2022/05/31 03:06:42;;;;;;;14.32;4.75;;;;;;;8.17;100.00;97677.38;4949284;28;20047;-56
2022/05/31 03:09:09;;;;;;;14.77;5.20;;;;;;;8.05;100.00;97670.00;4947804;28;20034;-56
2022/05/31 03:11:45;;;;;;;17.52;5.13;;;;;;;7.95;100.00;97671.25;4948862;28;20047;-55
2022/05/31 03:14:26;;;;;;;17.60;4.72;;;;;;;8.38;100.00;97678.34;4948298;28;20833;-56
2022/05/31 03:17:25;;;;;;;20.43;5.83;;;;;;;8.14;100.00;97681.81;4948195;28;20047;-55
2022/05/31 03:19:58;;;;;;;17.58;5.10;;;;;;;8.21;100.00;97673.75;4947626;28;20713;-55
2022/05/31 03:22:27;;;;;;;20.90;5.10;;;;;;;8.07;100.00;97676.03;4949057;28;20050;-55
2022/05/31 03:25:05;;;;;;;18.73;5.20;;;;;;;8.11;100.00;97678.44;4949544;28;20030;-55
2022/05/31 03:27:31;;;;;;;18.20;5.03;;;;;;;8.08;100.00;97682.91;4948977;28;20039;-56
2022/05/31 03:30:00;;;;;;;24.23;6.00;;;;;;;8.08;100.00;97678.53;4945307;28;20776;-55
2022/05/31 03:32:26;;;;;;;16.35;4.95;;;;;;;8.48;100.00;97686.66;4948239;28;20097;-56
2022/05/31 03:34:52;;;;;;;20.92;5.40;;;;;;;7.97;100.00;97682.44;4948094;28;20683;-56
2022/05/31 03:37:18;;;;;;;17.75;5.30;;;;;;;8.36;100.00;97689.69;4947113;28;20043;-55
2022/05/31 03:39:43;;;;;;;22.13;5.80;;;;;;;8.16;100.00;97686.09;4947622;28;20078;-55
2022/05/31 03:42:09;;;;;;;17.33;5.40;;;;;;;8.04;100.00;97681.31;4947516;28;21023;-55
2022/05/31 03:44:34;;;;;;;17.13;5.25;;;;;;;8.10;100.00;97691.47;4947607;28;20031;-56
2022/05/31 03:47:02;;;;;;;15.07;4.57;;;;;;;8.36;100.00;97689.69;4947453;28;20034;-57
2022/05/31 03:49:27;;;;;;;17.83;5.30;;;;;;;8.28;100.00;97696.00;4948534;28;20548;-56
2022/05/31 03:51:53;;;;;;;17.33;5.05;;;;;;;8.35;100.00;97690.59;4946646;28;20050;-55
2022/05/31 03:54:18;;;;;;;19.40;4.95;;;;;;;8.22;100.00;97696.25;4947033;28;20179;-56
2022/05/31 03:56:43;;;;;;;14.05;4.63;;;;;;;8.34;100.00;97696.69;4949486;28;20062;-57
2022/05/31 03:59:09;;;;;;;18.83;4.90;;;;;;;8.99;100.00;97698.56;4949636;28;20023;-56
2022/05/31 04:01:34;;;;;;;12.80;4.50;;;;;;;8.99;100.00;97703.78;4948291;28;20628;-57
2022/05/31 04:03:59;;;;;;;13.25;4.15;;;;;;;9.09;100.00;97698.22;4948055;28;20031;-57
2022/05/31 04:06:25;;;;;;;16.73;4.72;;;;;;;9.03;100.00;97692.34;4947495;28;20476;-57
2022/05/31 04:08:50;;;;;;;13.65;4.40;;;;;;;9.95;100.00;97695.47;4948829;28;20035;-56
2022/05/31 04:11:16;;;;;;;13.77;4.60;;;;;;;9.84;100.00;97682.91;4945699;28;20092;-56
2022/05/31 04:13:42;;;;;;;15.45;4.68;;;;;;;9.68;100.00;97687.09;4947352;28;20862;-55
2022/05/31 04:16:11;;;;;;;13.48;4.32;;;;;;;10.15;100.00;97681.59;4947464;28;20748;-56
2022/05/31 04:18:37;;;;;;;17.65;4.72;;;;;;;10.19;100.00;97677.06;4950831;28;20030;-56
2022/05/31 04:21:05;;;;;;;17.15;5.00;;;;;;;10.89;100.00;97675.63;4946395;28;20067;-57
2022/05/31 04:26:16;;;;;;;14.27;4.50;;;;;;;12.23;100.00;97678.59;4946482;28;20050;-55
2022/05/31 04:28:41;;;;;;;10.63;3.58;;;;;;;12.03;100.00;97677.84;4947810;28;20460;-56
2022/05/31 04:31:06;;;;;;;9.52;3.30;;;;;;;11.92;100.00;97683.63;4949132;28;20042;-56
2022/05/31 04:33:32;;;;;;;10.82;3.90;;;;;;;12.11;100.00;97680.94;4948293;28;20798;-56
2022/05/31 04:35:59;;;;;;;14.13;4.40;;;;;;;11.31;100.00;97684.91;4961550;28;20031;-58
2022/05/31 04:38:24;;;;;;;13.90;4.60;;;;;;;10.79;100.00;97685.66;4944629;28;20023;-55
2022/05/31 04:40:49;;;;;;;13.30;4.45;;;;;;;11.18;100.00;97689.06;4944148;28;20082;-56
2022/05/31 04:43:15;;;;;;;12.38;3.80;;;;;;;11.02;100.00;97682.88;4946781;28;20502;-56
2022/05/31 04:45:41;;;;;;;10.63;3.88;;;;;;;11.99;100.00;97686.78;4946594;28;20051;-56
2022/05/31 04:48:06;;;;;;;11.10;4.03;;;;;;;11.11;100.00;97678.06;4946057;28;20027;-58
2022/05/31 04:50:31;;;;;;;9.65;3.90;;;;;;;11.84;100.00;97677.09;4946664;28;20098;-57
2022/05/31 04:52:57;;;;;;;10.27;3.80;;;;;;;12.51;100.00;97678.78;4946001;28;20031;-57
2022/05/31 04:55:22;;;;;;;9.57;3.30;;;;;;;15.24;100.00;97665.31;4948599;28;20470;-57
2022/05/31 04:57:47;;;;;;;9.40;3.50;;;;;;;16.21;100.00;97665.88;4948637;28;20100;-56
2022/05/31 05:00:13;;;;;;;7.93;2.95;;;;;;;17.77;100.00;97656.34;4944254;28;20114;-58
2022/05/31 05:02:38;;;;;;;12.15;3.90;;;;;;;18.27;90.32;97659.59;4947882;28;20031;-57
2022/05/31 05:05:04;;;;;;;7.60;3.08;;;;;;;20.14;73.33;97661.16;4946813;28;20019;-57
2022/05/31 05:07:32;;;;;;;8.80;3.20;;;;;;;22.11;63.16;97643.63;4948849;28;20027;-57
2022/05/31 05:09:57;;;;;;;9.43;3.53;;;;;;;19.68;63.73;97649.16;4944580;28;20039;-57
2022/05/31 05:12:23;;;;;;;6.57;3.00;;;;;;;22.82;56.35;97647.53;4945343;28;20414;-57
2022/05/31 05:14:49;;;;;;;7.07;3.05;;;;;;;19.94;55.89;97654.09;4947974;28;20125;-57
2022/05/31 05:17:14;;;;;;;9.07;3.40;;;;;;;18.83;64.77;97645.50;4962112;28;20035;-57
2022/05/31 05:19:39;;;;;;;7.13;2.88;;;;;;;20.43;62.16;97652.53;4948270;28;20603;-57
2022/05/31 05:22:05;;;;;;;6.47;3.00;;;;;;;19.16;67.46;97641.09;4945130;28;20043;-58
2022/05/31 05:24:30;;;;;;;7.72;3.20;;;;;;;19.03;69.59;97651.84;4947044;28;20050;-58
2022/05/31 05:26:55;;;;;;;6.40;3.20;;;;;;;17.55;78.68;97643.94;4947432;28;20039;-57
2022/05/31 05:32:08;;;;;;;6.63;2.88;;;;;;;19.97;62.20;97646.72;4945847;28;20118;-58
2022/05/31 05:34:34;;;;;;;7.32;3.20;;;;;;;21.16;56.13;97655.81;4944597;28;20031;-56
2022/05/31 05:36:59;;;;;;;7.22;2.83;;;;;;;22.99;52.79;97642.38;4944869;28;20046;-57
2022/05/31 05:39:25;;;;;;;6.05;2.97;;;;;;;21.67;53.70;97640.63;4946714;28;20031;-56
2022/05/31 05:41:50;;;;;;;6.00;2.83;;;;;;;22.58;48.50;97650.72;4945020;28;20035;-57
2022/05/31 05:44:15;;;;;;;6.03;2.80;;;;;;;21.78;52.15;97636.13;4945793;28;20023;-56
2022/05/31 05:46:41;;;;;;;5.40;2.80;;;;;;;25.09;45.88;97635.31;4946471;28;20510;-57
2022/05/31 05:49:06;;;;;;;6.13;2.83;;;;;;;24.41;46.40;97632.56;4947002;28;20062;-58
2022/05/31 05:51:33;;;;;;;6.18;2.63;;;;;;;24.24;45.20;97633.47;4958970;28;20172;-58
2022/05/31 05:54:02;;;;;;;4.95;2.50;;;;;;;22.04;48.54;97631.91;4947372;28;20831;-56
2022/05/31 05:56:28;;;;;;;4.05;2.65;;;;;;;22.70;50.81;97632.78;4950433;28;20038;-56
2022/05/31 05:58:54;;;;;;;4.40;2.40;;;;;;;21.55;50.16;97637.28;4951190;28;20573;-57
2022/05/31 06:01:35;;;;;;;6.00;2.90;;;;;;;24.61;44.89;97633.19;4949428;28;20098;-56
2022/05/31 06:04:13;;;;;;;6.68;2.70;;;;;;;24.03;45.45;97632.03;4949829;28;20841;-57
2022/05/31 06:06:41;;;;;;;6.50;2.70;;;;;;;24.62;44.69;97634.00;4951993;28;20047;-57
2022/05/31 06:09:12;;;;;;;6.10;2.85;;;;;;;24.12;46.69;97624.09;4948980;28;20027;-58
2022/05/31 06:11:49;;;;;;;5.15;2.70;;;;;;;22.96;47.62;97622.25;4948048;28;20035;-59
2022/05/31 06:14:17;;;;;;;5.30;2.63;;;;;;;23.50;47.68;97611.63;4948836;28;20105;-57
2022/05/31 06:16:57;;;;;;;6.38;2.97;;;;;;;23.46;48.38;97607.63;4949811;28;20043;-58
2022/05/31 06:19:31;;;;;;;5.97;2.72;;;;;;;25.89;43.88;97611.50;4951640;28;20026;-57
2022/05/31 06:21:58;;;;;;;6.25;2.80;;;;;;;25.36;44.29;97599.50;4948741;28;20038;-58
2022/05/31 06:24:27;;;;;;;7.38;2.70;;;;;;;23.70;47.33;97600.81;4948317;28;20038;-57
2022/05/31 06:26:52;;;;;;;9.05;3.05;;;;;;;26.70;42.87;97585.53;4948094;28;20038;-57
2022/05/31 06:29:17;;;;;;;6.55;2.90;;;;;;;25.04;44.27;97598.47;4951887;28;20031;-60
2022/05/31 06:31:43;;;;;;;5.63;3.13;;;;;;;25.32;43.61;97590.19;4948403;28;20043;-57
2022/05/31 06:34:09;;;;;;;6.95;3.00;;;;;;;25.66;42.37;97586.47;4950294;28;20401;-57
2022/05/31 06:36:34;;;;;;;5.72;2.85;;;;;;;26.03;43.81;97577.94;4950821;28;20059;-59
2022/05/31 06:38:59;;;;;;;6.07;2.63;;;;;;;26.81;41.16;97570.13;4947723;28;20035;-57
2022/05/31 06:41:25;;;;;;;5.77;2.67;;;;;;;24.56;44.83;97574.19;4947674;28;20497;-57
2022/05/31 06:43:50;;;;;;;5.10;2.67;;;;;;;27.98;39.03;97572.56;4949437;28;20262;-57
2022/05/31 06:46:16;;;;;;;8.15;2.65;;;;;;;24.64;43.31;97578.69;4948138;28;20065;-57
2022/05/31 06:48:42;;;;;;;6.05;2.78;;;;;;;26.51;40.29;97580.63;4948099;28;20042;-58
2022/05/31 06:51:10;;;;;;;6.40;2.83;;;;;;;27.87;38.43;97585.34;4948174;28;20043;-57
2022/05/31 06:59:05;;;;;;;4.60;2.40;;;;;;;28.46;37.38;97584.56;4948312;28;20037;-58
2022/05/31 07:01:37;;;;;;;6.65;2.60;;;;;;;27.41;40.34;97585.44;4946528;28;20043;-58
2022/05/31 07:04:03;;;;;;;6.68;2.60;;;;;;;27.63;39.21;97590.97;4946579;28;20090;-60
2022/05/31 07:06:31;;;;;;;6.38;2.58;;;;;;;29.21;36.76;97592.47;4947346;28;20039;-58
2022/05/31 07:08:56;;;;;;;4.43;2.20;;;;;;;29.54;36.68;97583.91;4963706;28;20061;-58
2022/05/31 07:11:22;;;;;;;4.10;2.42;;;;;;;27.81;38.72;97578.06;4947918;28;20126;-58
2022/05/31 07:13:48;;;;;;;3.72;2.22;;;;;;;30.75;34.99;97578.22;4949633;28;20023;-58
2022/05/31 07:16:13;;;;;;;4.25;2.40;;;;;;;31.14;34.80;97579.41;4948385;28;20062;-58
2022/05/31 07:18:38;;;;;;;4.32;2.20;;;;;;;32.41;33.86;97585.59;4949032;28;20035;-58
2022/05/31 07:21:04;;;;;;;4.93;2.00;;;;;;;30.91;34.50;97574.38;4948293;28;20709;-58
2022/05/31 07:23:29;;;;;;;4.50;2.08;;;;;;;31.73;33.57;97582.38;4948402;28;20704;-57
2022/05/31 07:25:54;;;;;;;3.83;1.90;;;;;;;31.63;33.63;97580.09;4947020;28;20087;-58
2022/05/31 07:28:20;;;;;;;3.80;1.90;;;;;;;31.53;32.61;97582.38;4947858;28;20034;-58
2022/05/31 07:30:45;;;;;;;4.33;2.07;;;;;;;30.90;33.26;97584.28;4947481;28;20049;-59
2022/05/31 07:33:12;;;;;;;5.43;2.40;;;;;;;30.27;33.54;97572.81;4949762;28;21535;-59
2022/05/31 07:35:41;;;;;;;5.78;2.17;;;;;;;28.19;36.98;97577.19;4947735;28;20740;-57
2022/05/31 07:38:07;;;;;;;4.50;2.20;;;;;;;32.15;31.78;97583.81;4949103;28;20059;-59
2022/05/31 07:40:32;;;;;;;3.80;2.20;;;;;;;29.82;33.32;97580.41;4948251;28;20517;-58
2022/05/31 07:42:57;;;;;;;5.40;2.30;;;;;;;29.73;33.08;97580.53;4947976;28;20057;-57
2022/05/31 07:45:23;;;;;;;4.97;2.17;;;;;;;33.34;27.99;97588.88;4949676;28;20402;-59
2022/05/31 07:47:49;;;;;;;4.53;2.20;;;;;;;29.08;32.22;97578.88;4948752;28;20076;-60
2022/05/31 07:50:14;;;;;;;3.65;1.95;;;;;;;31.46;29.84;97583.16;4947430;28;20542;-59
2022/05/31 07:52:40;;;;;;;3.53;2.20;;;;;;;27.71;34.80;97584.69;4945748;28;20113;-58
2022/05/31 07:55:07;;;;;;;6.25;2.42;;;;;;;27.20;35.67;97590.59;4950380;28;20046;-57
2022/05/31 08:00:16;;;;;;;4.90;2.28;;;;;;;28.13;35.10;97581.44;4946758;28;20177;-57
2022/05/31 08:02:42;;;;;;;9.15;2.40;;;;;;;30.43;32.25;97582.47;4948442;28;20423;-57
2022/05/31 08:05:07;;;;;;;6.97;2.53;;;;;;;26.73;35.93;97585.22;4947855;28;20257;-57
2022/05/31 08:07:33;;;;;;;6.28;2.55;;;;;;;30.62;31.77;97578.19;4947297;28;20265;-58
2022/05/31 08:09:59;;;;;;;5.35;2.53;;;;;;;29.49;32.54;97581.78;4947666;28;20035;-59
2022/05/31 08:12:24;;;;;;;6.38;2.45;;;;;;;29.12;33.92;97590.91;4947344;28;20383;-57
2022/05/31 08:14:49;;;;;;;6.25;2.70;;;;;;;29.28;32.93;97582.63;4946859;28;20125;-56
2022/05/31 08:17:15;;;;;;;5.88;2.70;;;;;;;28.22;34.34;97585.69;4947710;28;20161;-57
2022/05/31 08:19:40;;;;;;;8.15;3.03;;;;;;;25.15;37.68;97579.47;4948518;28;20142;-58
2022/05/31 08:22:05;;;;;;;7.38;2.97;;;;;;;26.80;36.73;97584.50;4946699;28;20097;-57
2022/05/31 08:24:31;;;;;;;8.80;2.90;;;;;;;26.64;37.04;97583.59;4947651;28;20023;-58
2022/05/31 08:26:56;;;;;;;6.97;2.80;;;;;;;27.69;36.43;97574.16;4946961;28;20360;-57
2022/05/31 08:29:23;;;;;;;5.82;2.65;;;;;;;29.96;33.32;97566.00;4946528;28;20034;-57
2022/05/31 08:31:48;;;;;;;8.15;2.40;;;;;;;30.34;31.03;97565.66;4944624;28;20105;-57
2022/05/31 08:34:14;;;;;;;6.50;2.80;;;;;;;28.92;33.48;97570.06;4947182;28;20031;-59
2022/05/31 08:36:39;;;;;;;7.38;2.75;;;;;;;26.81;36.16;97560.25;4945587;28;20047;-58
2022/05/31 08:39:04;;;;;;;6.63;2.50;;;;;;;29.53;32.92;97571.47;4945717;28;20031;-59
2022/05/31 08:41:32;;;;;;;5.70;2.53;;;;;;;27.39;34.12;97563.38;4945682;28;20057;-57
2022/05/31 08:44:23;;;;;;;7.60;2.50;;;;;;;31.30;29.36;97546.69;4946314;28;20607;-58
2022/05/31 08:47:17;;;;;;;5.32;2.50;;;;;;;28.72;32.53;97543.00;4946118;28;20039;-58
2022/05/31 08:53:10;;;;;;;4.38;2.25;;;;;;;29.73;31.09;97532.16;4946925;28;21026;-57
2022/05/31 08:58:58;;;;;;;5.40;2.60;;;;;;;30.31;30.64;97525.66;4947825;28;20042;-57
2022/05/31 09:01:29;;;;;;;5.47;2.17;;;;;;;29.26;30.96;97533.63;4945924;28;20127;-58
2022/05/31 09:03:59;;;;;;;5.50;2.45;;;;;;;29.88;29.13;97531.25;4946799;28;20564;-57
2022/05/31 09:06:36;;;;;;;5.65;2.30;;;;;;;32.02;28.48;97527.97;4946441;28;20043;-57
2022/05/31 09:09:09;;;;;;;5.60;2.10;;;;;;;30.26;30.09;97522.75;4948680;28;20148;-59
2022/05/31 09:12:03;;;;;;;4.20;2.15;;;;;;;30.21;29.07;97530.59;4945882;28;20046;-57
2022/05/31 09:14:32;;;;;;;5.30;2.40;;;;;;;31.96;26.87;97528.81;4947078;28;20050;-59
2022/05/31 09:17:08;;;;;;;5.55;2.28;;;;;;;28.81;30.75;97532.97;4945659;28;20344;-58
2022/05/31 09:19:42;;;;;;;4.15;1.95;;;;;;;29.53;28.78;97523.94;4948918;28;20085;-58
2022/05/31 09:22:08;;;;;;;3.75;1.85;;;;;;;30.65;28.12;97521.28;4947456;28;20046;-60
2022/05/31 09:24:44;;;;;;;4.30;2.00;;;;;;;30.66;28.07;97528.28;4945323;28;20049;-58
2022/05/31 09:27:19;;;;;;;5.82;2.22;;;;;;;29.90;27.93;97518.44;4945283;28;20039;-59
2022/05/31 09:29:50;;;;;;;4.60;2.20;;;;;;;29.31;28.64;97512.41;4948980;28;20031;-58
2022/05/31 09:32:41;;;;;;;4.30;2.08;;;;;;;28.72;29.16;97518.03;4951134;28;20765;-57
2022/05/31 09:35:38;;;;;;;4.55;2.15;;;;;;;28.03;30.93;97505.81;4949147;28;20436;-57
2022/05/31 09:38:35;;;;;;;5.78;2.40;;;;;;;29.70;29.69;97504.84;4949937;28;20390;-57
2022/05/31 09:41:22;;;;;;;4.60;2.20;;;;;;;29.96;29.34;97498.81;4949535;28;20097;-56
2022/05/31 09:44:09;;;;;;;7.20;2.70;;;;;;;28.81;30.38;97500.78;4951329;28;20027;-58
2022/05/31 09:46:44;;;;;;;6.03;2.63;;;;;;;28.82;30.00;97495.22;4951152;28;20039;-59
2022/05/31 09:49:23;;;;;;;7.22;2.60;;;;;;;30.67;28.99;97503.88;4947901;28;20113;-57
2022/05/31 09:51:49;;;;;;;5.45;2.30;;;;;;;29.59;31.71;97508.88;4949669;28;20049;-56
2022/05/31 09:57:10;;;;;;;4.85;2.40;;;;;;;29.23;30.10;97496.44;4950546;28;20106;-58
2022/05/31 10:00:04;;;;;;;6.47;2.80;;;;;;;29.75;28.41;97484.44;4947929;28;20027;-58
2022/05/31 10:02:36;;;;;;;5.00;2.30;;;;;;;29.94;28.63;97487.41;4947842;28;20039;-57
2022/05/31 10:05:21;;;;;;;4.68;2.25;;;;;;;29.37;29.52;97487.47;4950936;28;20046;-57
2022/05/31 10:07:48;;;;;;;5.15;2.55;;;;;;;28.83;30.01;97480.75;4950631;28;20828;-57
2022/05/31 10:10:16;;;;;;;6.53;2.45;;;;;;;30.06;28.52;97479.63;4949604;28;20038;-57
2022/05/31 10:12:54;;;;;;;6.40;2.40;;;;;;;28.78;30.27;97483.22;4950065;28;20030;-56
2022/05/31 10:15:37;;;;;;;5.82;2.35;;;;;;;27.55;29.30;97481.19;4950919;28;20076;-57
2022/05/31 10:18:05;;;;;;;6.75;2.45;;;;;;;28.22;29.59;97489.16;4949118;28;20038;-57
2022/05/31 10:20:32;;;;;;;6.40;2.65;;;;;;;28.02;29.12;97480.03;4948545;28;20109;-57
2022/05/31 10:22:59;;;;;;;6.07;2.63;;;;;;;28.44;28.75;97473.13;4948975;28;20026;-57
2022/05/31 10:25:46;;;;;;;5.85;2.40;;;;;;;31.17;27.73;97471.22;4948665;28;20556;-58
2022/05/31 10:28:23;;;;;;;5.93;2.60;;;;;;;28.92;29.37;97478.78;4949557;28;20031;-57
2022/05/31 10:31:02;;;;;;;5.20;2.20;;;;;;;27.06;30.45;97482.47;4948343;28;20042;-58
2022/05/31 10:33:28;;;;;;;9.77;2.55;;;;;;;25.83;31.54;97461.75;4950575;28;20113;-56
2022/05/31 10:36:04;;;;;;;6.88;2.45;;;;;;;25.69;31.74;97469.47;4948647;28;20621;-58
2022/05/31 10:38:31;;;;;;;6.25;2.53;;;;;;;25.78;32.44;97451.59;4947922;28;20555;-56
2022/05/31 10:41:06;;;;;;;6.40;2.55;;;;;;;28.49;32.02;97459.97;4947317;28;20549;-57
2022/05/31 10:43:40;;;;;;;6.05;2.50;;;;;;;28.48;29.65;97457.47;4949790;28;20045;-57
2022/05/31 10:46:19;;;;;;;8.60;2.67;;;;;;;28.55;28.89;97461.91;4948339;28;20039;-56
2022/05/31 10:48:49;;;;;;;8.60;2.88;;;;;;;28.21;29.02;97455.34;4949720;28;20061;-57
2022/05/31 10:51:39;;;;;;;6.07;2.38;;;;;;;29.56;28.41;97442.13;4948277;28;20043;-57
2022/05/31 10:54:38;;;;;;;5.40;2.30;;;;;;;29.13;28.57;97447.56;4949791;28;20054;-58
2022/05/31 10:57:42;;;;;;;6.53;2.30;;;;;;;27.12;30.67;97445.09;4951471;28;20047;-57
2022/05/31 11:00:18;;;;;;;6.85;2.80;;;;;;;26.59;32.08;97449.50;4924654;29;20066;-59
2022/05/31 11:03:14;;;;;;;7.88;3.03;;;;;;;28.45;29.93;97445.25;4946118;28;20109;-56
2022/05/31 11:05:40;;;;;;;8.85;2.85;;;;;;;26.47;30.81;97438.41;4949051;28;20448;-56
2022/05/31 11:11:29;;;;;;;6.90;2.58;;;;;;;26.16;32.09;97422.41;4947337;28;20113;-56
2022/05/31 11:14:23;;;;;;;8.63;2.70;;;;;;;26.11;32.07;97430.09;4948468;28;20493;-58
2022/05/31 11:17:11;;;;;;;6.95;2.63;;;;;;;25.82;33.64;97430.69;4949213;28;20053;-57
2022/05/31 11:20:05;;;;;;;7.65;2.70;;;;;;;25.62;33.01;97420.41;4947831;28;20593;-57
2022/05/31 11:23:09;;;;;;;8.20;2.70;;;;;;;25.38;33.42;97429.34;4947602;28;20067;-57
2022/05/31 11:26:12;;;;;;;8.90;3.08;;;;;;;25.61;33.21;97429.44;4947889;28;20044;-57
2022/05/31 11:28:45;;;;;;;11.02;3.20;;;;;;;25.11;34.74;97427.88;4949217;28;20144;-57
2022/05/31 11:31:19;;;;;;;9.30;2.90;;;;;;;25.57;33.36;97420.13;4947661;28;20032;-57
2022/05/31 11:34:29;;;;;;;10.25;3.25;;;;;;;26.15;33.01;97423.38;4948346;28;20038;-56
2022/05/31 11:37:12;;;;;;;8.50;2.55;;;;;;;26.40;31.83;97420.59;4947561;28;20130;-58
2022/05/31 11:40:07;;;;;;;7.88;2.60;;;;;;;26.91;31.77;97420.91;4949895;28;20500;-56
2022/05/31 11:42:42;;;;;;;9.38;2.50;;;;;;;26.27;31.75;97419.31;4946545;28;20154;-57
2022/05/31 11:45:19;;;;;;;10.80;2.92;;;;;;;25.89;31.98;97411.13;4946828;28;20145;-57
2022/05/31 11:47:52;;;;;;;7.05;2.65;;;;;;;27.57;32.64;97404.16;4947785;28;20023;-56
2022/05/31 11:50:32;;;;;;;11.05;2.80;;;;;;;25.64;31.87;97409.56;4946809;28;20038;-58
2022/05/31 11:53:22;;;;;;;10.30;2.97;;;;;;;25.77;32.09;97408.03;4946895;28;20027;-57
2022/05/31 11:56:24;;;;;;;7.65;2.63;;;;;;;25.29;32.48;97409.88;4948500;28;20046;-57
2022/05/31 11:59:00;;;;;;;8.27;2.88;;;;;;;25.48;31.24;97403.28;4948430;28;20050;-58
2022/05/31 12:01:38;;;;;;;12.27;3.10;;;;;;;26.19;32.44;97405.97;4947624;28;20043;-58
2022/05/31 12:04:10;;;;;;;6.53;2.47;;;;;;;26.78;34.23;97405.44;4948421;28;20118;-58
2022/05/31 12:07:09;;;;;;;8.43;2.83;;;;;;;25.54;32.16;97386.56;4948244;28;20604;-58
2022/05/31 12:09:44;;;;;;;6.97;2.50;;;;;;;25.91;32.13;97386.91;4945150;28;20061;-57
2022/05/31 12:12:18;;;;;;;7.85;2.75;;;;;;;25.71;36.30;97381.16;4946457;28;20047;-58
2022/05/31 12:14:48;;;;;;;8.95;2.70;;;;;;;25.88;32.79;97377.44;4948124;28;20825;-57